createdAt,value
2023-08-09T00:02:36.424Z,99753.23
2023-08-09T00:07:39.371Z,99760.14
2023-08-09T00:12:42.323Z,99763.04
2023-08-09T00:17:46.089Z,99770.41
2023-08-09T00:22:49.008Z,99770.71
2023-08-09T00:27:52.010Z,99771.68
2023-08-09T00:32:55.108Z,99768.80
2023-08-09T00:37:57.987Z,99767.92
2023-08-09T00:43:00.841Z,99757.67
2023-08-09T00:48:04.042Z,99751.64
2023-08-09T00:53:07.883Z,99745.74
2023-08-09T00:58:10.807Z,99743.85
2023-08-09T01:03:15.247Z,99747.94
2023-08-09T01:08:37.833Z,99743.30
2023-08-09T01:13:41.727Z,99746.51
2023-08-09T01:18:45.081Z,99758.16
2023-08-09T01:23:49.811Z,99761.41
2023-08-09T01:28:52.667Z,99776.31
2023-08-09T01:33:55.634Z,99783.91
2023-08-09T01:39:01.661Z,99773.18
2023-08-09T01:44:08.993Z,99769.08
2023-08-09T01:49:17.187Z,99772.18
2023-08-09T01:54:20.622Z,99771.05
2023-08-09T01:59:24.451Z,99778.20
2023-08-09T02:04:27.339Z,99773.20
2023-08-09T02:09:30.228Z,99768.30
2023-08-09T02:14:33.222Z,99772.63
2023-08-09T02:19:36.375Z,99778.44
2023-08-09T02:24:39.256Z,99785.77
2023-08-09T02:29:42.172Z,99788.55
2023-08-09T02:34:44.913Z,99796.90
2023-08-09T02:39:47.761Z,99801.20
2023-08-09T02:44:50.720Z,99802.85
2023-08-09T02:49:53.464Z,99802.00
2023-08-09T02:54:56.960Z,99801.86
2023-08-09T02:59:59.841Z,99802.04
2023-08-09T03:05:05.332Z,99796.50
2023-08-09T03:10:09.028Z,99792.25
2023-08-09T03:15:12.812Z,99794.34
2023-08-09T03:20:15.762Z,99804.27
2023-08-09T03:25:18.650Z,99803.59
2023-08-09T03:30:21.480Z,99809.95
2023-08-09T03:35:24.421Z,99815.39
2023-08-09T03:40:27.317Z,99815.41
2023-08-09T03:45:30.326Z,99812.57
2023-08-09T03:50:33.061Z,99817.48
2023-08-09T03:55:36.032Z,99822.86
2023-08-09T04:00:38.819Z,99824.91
2023-08-09T04:05:42.684Z,99823.16
2023-08-09T04:10:45.523Z,99827.41
2023-08-09T04:15:49.178Z,99833.80
2023-08-09T04:20:52.274Z,99838.85
2023-08-09T04:25:55.769Z,99849.15
2023-08-09T04:30:58.645Z,99857.56
2023-08-09T04:36:01.439Z,99865.96
2023-08-09T04:41:05.221Z,99870.77
2023-08-09T04:46:08.085Z,99873.52
2023-08-09T04:51:11.231Z,99877.54
2023-08-09T04:56:14.126Z,99883.92
2023-08-09T05:01:16.944Z,99892.50
2023-08-09T05:06:19.848Z,99901.20
2023-08-09T05:11:22.762Z,99906.73
2023-08-09T05:16:27.216Z,99908.86
2023-08-09T05:21:30.190Z,99916.80
2023-08-09T05:26:32.905Z,99911.52
2023-08-09T05:31:35.827Z,99912.17
2023-08-09T05:36:38.743Z,99921.07
2023-08-09T05:41:41.516Z,99925.80
2023-08-09T05:46:44.640Z,99925.36
2023-08-09T05:51:47.659Z,99928.86
2023-08-09T05:56:50.420Z,99934.42
2023-08-09T06:01:53.497Z,99934.25
2023-08-09T06:06:56.417Z,99939.03
2023-08-09T06:11:59.411Z,99938.24
2023-08-09T06:17:03.407Z,99949.89
2023-08-09T06:22:06.795Z,99954.86
2023-08-09T06:27:10.079Z,99956.55
2023-08-09T06:32:13.026Z,99964.74
2023-08-09T06:37:15.858Z,99972.89
2023-08-09T06:42:18.712Z,99974.01
2023-08-09T06:47:21.567Z,99980.45
2023-08-09T06:52:24.591Z,99980.60
2023-08-09T06:57:27.667Z,99978.34
2023-08-09T07:02:31.346Z,99987.02
2023-08-09T07:07:34.651Z,99989.53
2023-08-09T07:12:37.744Z,99983.02
2023-08-09T07:17:40.951Z,99985.73
2023-08-09T07:22:45.719Z,99993.16
2023-08-09T07:27:50.548Z,99996.95
2023-08-09T07:32:56.588Z,99998.48
2023-08-09T07:38:00.342Z,99993.80
2023-08-09T07:43:03.986Z,99997.71
2023-08-09T07:48:07.253Z,100001.13
2023-08-09T07:53:10.233Z,100003.86
2023-08-09T07:58:13.312Z,100009.43
2023-08-09T08:03:16.273Z,100015.01
2023-08-09T08:08:20.264Z,100020.58
2023-08-09T08:13:23.374Z,100017.43
2023-08-09T08:18:28.546Z,100014.89
2023-08-09T08:23:33.524Z,100013.44
2023-08-09T08:28:37.142Z,100008.23
2023-08-09T08:33:46.725Z,100008.15
2023-08-09T08:38:51.254Z,100006.73
2023-08-09T08:43:55.280Z,100003.69
2023-08-09T08:49:01.716Z,100010.86
2023-08-09T08:54:05.118Z,100011.86
2023-08-09T08:59:08.914Z,100014.98
2023-08-09T09:04:11.858Z,100013.75
2023-08-09T09:09:18.845Z,100004.80
2023-08-09T09:14:22.809Z,100000.98
2023-08-09T09:19:25.750Z,100004.44
2023-08-09T09:24:30.615Z,100017.09
2023-08-09T09:29:34.516Z,100023.78
2023-08-09T09:34:39.601Z,100034.19
2023-08-09T09:39:47.432Z,100030.90
2023-08-09T09:44:50.341Z,100031.91
2023-08-09T09:49:54.238Z,100031.70
2023-08-09T09:54:58.012Z,100040.14
2023-08-09T10:00:07.819Z,100034.64
2023-08-09T10:05:12.441Z,100040.32
2023-08-09T10:10:16.605Z,100040.35
2023-08-09T10:15:24.927Z,100046.77
2023-08-09T10:20:28.675Z,100044.55
2023-08-09T10:25:46.190Z,100047.35
2023-08-09T10:30:53.276Z,100048.91
2023-08-09T10:35:56.260Z,100047.30
2023-08-09T10:41:08.131Z,100051.41
2023-08-09T10:46:24.118Z,100054.91
2023-08-09T10:51:27.219Z,100054.54
2023-08-09T10:56:42.269Z,100057.71
2023-08-09T11:01:45.214Z,100058.77
2023-08-09T11:06:50.361Z,100057.78
2023-08-09T11:11:53.706Z,100056.42
2023-08-09T11:17:02.443Z,100057.26
2023-08-09T11:22:06.099Z,100058.42
2023-08-09T11:27:24.396Z,100062.36
2023-08-09T11:32:32.726Z,100064.86
2023-08-09T11:37:35.808Z,100063.90
2023-08-09T11:42:38.758Z,100073.15
2023-08-09T11:47:49.977Z,100071.33
2023-08-09T11:52:55.448Z,100066.69
2023-08-09T11:57:58.818Z,100067.43
2023-08-09T12:03:06.979Z,100072.02
2023-08-09T12:08:15.569Z,100072.69
2023-08-09T12:13:25.605Z,100069.89
2023-08-09T12:18:29.722Z,100066.02
2023-08-09T12:23:37.955Z,100067.02
2023-08-09T12:28:42.086Z,100075.10
2023-08-09T12:33:46.075Z,100075.44
2023-08-09T12:38:50.863Z,100071.84
2023-08-09T12:43:56.656Z,100068.48
2023-08-09T12:49:00.119Z,100073.48
2023-08-09T12:54:03.032Z,100067.33
2023-08-09T12:59:07.101Z,100074.38
2023-08-09T13:04:10.491Z,100073.55
2023-08-09T13:09:13.450Z,100084.30
2023-08-09T13:14:16.390Z,100081.13
2023-08-09T13:19:19.220Z,100087.36
2023-08-09T13:24:22.444Z,100085.30
2023-08-09T13:29:25.296Z,100087.95
2023-08-09T13:34:28.138Z,100090.61
2023-08-09T13:39:31.683Z,100092.89
2023-08-09T13:44:34.614Z,100089.76
2023-08-09T13:49:37.841Z,100090.45
2023-08-09T13:54:41.269Z,100088.23
2023-08-09T13:59:44.852Z,100085.30
2023-08-09T14:04:48.029Z,100088.92
2023-08-09T14:09:52.096Z,100084.98
2023-08-09T14:14:57.486Z,100079.20
2023-08-09T14:20:04.766Z,100087.64
2023-08-09T14:25:10.896Z,100088.83
2023-08-09T14:30:16.914Z,100098.04
2023-08-09T14:35:21.501Z,100097.85
2023-08-09T14:40:28.059Z,100107.94
2023-08-09T14:45:31.709Z,100120.92
2023-08-09T14:50:35.288Z,100132.25
2023-08-09T14:55:38.330Z,100144.48
2023-08-09T15:00:42.118Z,100147.83
2023-08-09T15:05:45.038Z,100149.05
2023-08-09T15:10:47.894Z,100156.15
2023-08-09T15:15:50.723Z,100166.17
2023-08-09T15:20:53.643Z,100162.79
2023-08-09T15:25:56.478Z,100162.75
2023-08-09T15:31:00.407Z,100164.06
2023-08-09T15:36:03.966Z,100167.73
2023-08-09T15:41:06.872Z,100171.29
2023-08-09T15:46:09.880Z,100163.84
2023-08-09T15:51:14.509Z,100167.80
2023-08-09T15:56:18.790Z,100168.53
2023-08-09T16:01:24.807Z,100164.96
2023-08-09T16:06:28.345Z,100167.06
2023-08-09T16:11:40.013Z,100167.26
2023-08-09T16:16:44.381Z,100166.49
2023-08-09T16:22:02.609Z,100168.70
2023-08-09T16:27:09.840Z,100172.78
2023-08-09T16:32:13.148Z,100174.67
2023-08-09T16:37:20.508Z,100173.85
2023-08-09T16:42:26.616Z,100181.10
2023-08-09T16:47:38.880Z,100185.56
2023-08-09T16:52:47.545Z,100195.50
2023-08-09T16:57:51.990Z,100200.11
2023-08-09T17:02:55.834Z,100200.46
2023-08-09T17:08:00.031Z,100198.32
2023-08-09T17:13:04.962Z,100203.41
2023-08-09T17:18:08.832Z,100208.16
2023-08-09T17:23:16.608Z,100210.58
2023-08-09T17:28:21.335Z,100211.30
2023-08-09T17:33:25.602Z,100211.94
2023-08-09T17:38:37.520Z,100214.94
2023-08-09T17:43:40.947Z,100217.55
2023-08-09T17:48:43.897Z,100224.61
2023-08-09T17:53:46.761Z,100227.66
2023-08-09T17:58:49.651Z,100229.19
2023-08-09T18:03:52.867Z,100231.31
2023-08-09T18:08:55.747Z,100232.39
2023-08-09T18:13:59.342Z,100236.44
2023-08-09T18:19:05.263Z,100242.17
2023-08-09T18:24:08.328Z,100246.98
2023-08-09T18:29:14.915Z,100247.34
2023-08-09T18:34:17.876Z,100258.00
2023-08-09T18:39:20.784Z,100262.54
2023-08-09T18:44:23.651Z,100266.04
2023-08-09T18:49:26.541Z,100274.04
2023-08-09T18:54:31.117Z,100276.23
2023-08-09T18:59:37.743Z,100280.26
2023-08-09T19:04:44.282Z,100283.72
2023-08-09T19:09:48.306Z,100290.36
2023-08-09T19:14:52.249Z,100296.95
2023-08-09T19:19:58.726Z,100298.10
2023-08-09T19:25:04.960Z,100305.11
2023-08-09T19:30:09.321Z,100331.06
2023-08-09T19:35:16.829Z,100330.18
2023-08-09T19:40:23.852Z,100333.02
2023-08-09T19:45:31.500Z,100336.70
2023-08-09T19:50:35.616Z,100337.28
2023-08-09T19:55:38.461Z,100337.73
2023-08-09T20:00:41.256Z,100343.93
2023-08-09T20:05:44.149Z,100347.43
2023-08-09T20:10:46.875Z,100346.76
2023-08-09T20:15:49.735Z,100348.16
2023-08-09T20:20:53.260Z,100349.00
2023-08-09T20:25:56.211Z,100356.30
2023-08-09T20:31:00.509Z,100360.57
2023-08-09T20:36:03.660Z,100362.30
2023-08-09T20:41:06.549Z,100367.41
2023-08-09T20:46:09.384Z,100370.20
2023-08-09T20:51:12.436Z,100374.21
2023-08-09T20:56:15.268Z,100373.73
2023-08-09T21:01:18.134Z,100378.04
2023-08-09T21:06:21.880Z,100379.17
2023-08-09T21:11:24.791Z,100388.77
2023-08-09T21:16:28.013Z,100390.30
2023-08-09T21:21:30.994Z,100393.98
2023-08-09T21:26:33.812Z,100388.04
2023-08-09T21:31:36.790Z,100383.45
2023-08-09T21:36:39.646Z,100387.42
2023-08-09T21:41:42.555Z,100395.59
2023-08-09T21:46:45.416Z,100397.75
2023-08-09T21:51:48.322Z,100409.35
2023-08-09T21:56:51.326Z,100413.59
2023-08-09T22:01:54.121Z,100417.20
2023-08-09T22:06:57.413Z,100413.73
2023-08-09T22:12:00.272Z,100414.80
2023-08-09T22:17:03.118Z,100416.26
2023-08-09T22:22:14.247Z,100412.34
2023-08-09T22:27:17.632Z,100417.23
2023-08-09T22:32:20.656Z,100417.20
2023-08-09T22:37:23.550Z,100415.70
2023-08-09T22:42:26.458Z,100421.63
2023-08-09T22:47:29.385Z,100424.63
2023-08-09T22:52:32.158Z,100424.58
2023-08-09T22:57:36.276Z,100426.05
2023-08-09T23:02:42.672Z,100428.60
2023-08-09T23:07:45.933Z,100426.73
2023-08-09T23:12:48.736Z,100424.11
2023-08-09T23:17:52.133Z,100426.92
2023-08-09T23:22:56.585Z,100434.44
2023-08-09T23:27:59.437Z,100433.38
2023-08-09T23:33:04.100Z,100435.31
2023-08-09T23:38:07.356Z,100434.77
2023-08-09T23:43:10.107Z,100440.36
2023-08-09T23:48:13.085Z,100453.41
2023-08-09T23:53:16.210Z,100453.37
2023-08-09T23:58:19.139Z,100458.30
